CheckWX is a tool to help pilots better visualize weather data.  It is not intended as a substitute for an official pre-flight weather briefing.

21:24:37 UTC

FJDG TAF
Diego Garcia Naval Support Facility
Diego Garcia, British Indian Ocean Territory
TAF FJDG 101700Z 1017/1123 13012G18KT 9999 FEW025 QNH2978INS BECMG 1115/1116 13025KT 9999 BKN025 QNH2984INS BECMG 1116/1117 13020G30KT 9999 SCT025 510003 QNH2979INS TX32/1106Z TN25/1021Z

Jul-10@
17:00 UTC

Jul-10 @ 17:00 UTC

Jul-11@
15:00 UTC

Jul-11 @ 15:00 UTC

TAF FJDG 101700Z 1017/1123 13012G18KT 9999 FEW025 QNH2978INS

Expired

Wind
  • 130° at 12 KTS
  • {Gusting to 18 KTS
Cloud Levels
  • Few at 2,500' AGL

Jul-11@
15:00 UTC

Jul-11 @ 15:00 UTC

Jul-11@
16:00 UTC

Jul-11 @ 16:00 UTC

BECMG 1115/1116 13025KT 9999 BKN025 QNH2984INS

Expired

Wind
  • 130° at 25 KTS
Cloud Levels
  • Broken at 2,500' AGL

Jul-11@
16:00 UTC

Jul-11 @ 16:00 UTC

Jul-11@
23:00 UTC

Jul-11 @ 23:00 UTC

BECMG 1116/1117 13020G30KT 9999 SCT025 510003 QNH2979INS TX32/1106Z TN25/1021Z

Becoming

Becoming Conditions expected by Sat, Jul 11, 2020 @ 17:00 UTC

Wind
  • 130° at 20 KTS
  • {Gusting to 30 KTS
Cloud Levels
  • Scattered at 2,500' AGL